Time;durP1;ratioP1;P1;durP2;ratioP2;P2;SDS_P1;SDS_P2;PMS_P1;PMS_P2;Temp;Humidity;BMP_temperature;BMP_pressure;BME280_temperature;BME280_humidity;BME280_pressure;Samples;Min_cycle;Max_cycle;Signal;HPM_P1;HPM_P2
2021/10/30 00:02:14;;;;;;;24.57;14.77;;;11.20;84.60;;;;;;5110652;28;20212;-67
2021/10/30 00:04:43;;;;;;;23.50;14.60;;;11.20;85.30;;;;;;5111367;28;20227;-67
2021/10/30 00:07:09;;;;;;;23.93;14.80;;;11.20;84.40;;;;;;5111065;28;20699;-68
2021/10/30 00:09:36;;;;;;;25.73;15.00;;;11.20;84.30;;;;;;5109592;28;20231;-67
2021/10/30 00:12:04;;;;;;;22.00;14.50;;;11.10;84.20;;;;;;5107302;28;20233;-67
2021/10/30 00:14:30;;;;;;;25.20;16.00;;;11.10;84.10;;;;;;5111267;28;20529;-67
2021/10/30 00:16:57;;;;;;;24.60;15.17;;;11.10;84.00;;;;;;5111180;28;20200;-67
2021/10/30 00:19:24;;;;;;;21.70;14.43;;;11.10;84.00;;;;;;5111200;28;20212;-67
2021/10/30 00:21:53;;;;;;;22.60;14.70;;;11.10;84.00;;;;;;5106407;28;20210;-67
2021/10/30 00:24:20;;;;;;;24.30;15.43;;;11.10;83.70;;;;;;5110792;28;20204;-67
2021/10/30 00:26:47;;;;;;;22.87;13.67;;;11.10;83.40;;;;;;5105835;28;20216;-66
2021/10/30 00:29:14;;;;;;;22.63;14.90;;;11.10;83.00;;;;;;5110894;28;20212;-68
2021/10/30 00:31:41;;;;;;;24.63;13.97;;;11.10;82.60;;;;;;5110916;28;20214;-67
2021/10/30 00:34:07;;;;;;;23.07;14.20;;;11.00;82.30;;;;;;5110970;28;20200;-67
2021/10/30 00:36:34;;;;;;;21.07;13.97;;;11.10;82.20;;;;;;5111096;28;20212;-66
2021/10/30 00:39:03;;;;;;;24.33;14.37;;;11.10;81.50;;;;;;5112540;28;20276;-66
2021/10/30 00:41:30;;;;;;;28.20;14.87;;;11.10;81.60;;;;;;5109512;28;20204;-66
2021/10/30 00:43:57;;;;;;;24.73;15.30;;;11.00;81.60;;;;;;5110018;28;20203;-66
2021/10/30 00:46:23;;;;;;;24.97;14.73;;;11.00;81.80;;;;;;5109657;28;20732;-65
2021/10/30 00:48:50;;;;;;;27.33;16.20;;;11.00;81.80;;;;;;5123373;28;20225;-67
2021/10/30 00:51:18;;;;;;;26.80;15.40;;;11.00;82.00;;;;;;5116119;28;20203;-66
2021/10/30 00:53:46;;;;;;;21.83;14.60;;;11.00;83.00;;;;;;5116255;28;20686;-66
2021/10/30 00:56:15;;;;;;;19.30;13.37;;;10.90;82.20;;;;;;5110011;28;20700;-65
2021/10/30 00:58:46;;;;;;;24.97;15.50;;;10.90;82.00;;;;;;5110679;28;20232;-67
2021/10/30 01:01:12;;;;;;;23.90;14.27;;;10.90;81.90;;;;;;5110441;28;20199;-66
2021/10/30 01:03:41;;;;;;;23.50;13.83;;;10.90;82.60;;;;;;5111220;28;20197;-67
2021/10/30 01:06:08;;;;;;;26.57;14.70;;;10.90;81.80;;;;;;5104420;28;20245;-66
2021/10/30 01:08:35;;;;;;;25.30;14.30;;;10.90;81.80;;;;;;5111639;28;20692;-66
2021/10/30 01:11:02;;;;;;;27.17;17.33;;;10.90;81.90;;;;;;5114054;28;20299;-67
2021/10/30 01:13:32;;;;;;;27.50;15.40;;;10.80;81.90;;;;;;5109751;28;20211;-66
2021/10/30 01:15:59;;;;;;;24.37;15.10;;;10.80;82.00;;;;;;5099634;28;20209;-66
2021/10/30 01:18:26;;;;;;;22.67;13.90;;;10.80;81.90;;;;;;5122506;28;20196;-67
2021/10/30 01:20:54;;;;;;;28.10;16.07;;;10.80;81.80;;;;;;5110793;28;20206;-66
2021/10/30 01:23:21;;;;;;;27.67;16.60;;;10.80;81.80;;;;;;5111287;28;20204;-67
2021/10/30 01:25:49;;;;;;;26.97;14.67;;;10.80;81.70;;;;;;5114309;28;20408;-67
2021/10/30 01:28:16;;;;;;;23.23;14.73;;;10.70;81.70;;;;;;5113881;28;20302;-65
2021/10/30 01:30:43;;;;;;;23.87;13.97;;;10.80;81.80;;;;;;5110173;28;20222;-67
2021/10/30 01:33:10;;;;;;;23.57;14.53;;;10.80;81.50;;;;;;5127177;27;20660;-66
2021/10/30 01:35:40;;;;;;;26.33;15.10;;;10.70;81.20;;;;;;5115871;27;20203;-66
2021/10/30 01:38:10;;;;;;;22.93;14.90;;;10.70;81.40;;;;;;5123072;27;20224;-67
2021/10/30 01:40:40;;;;;;;23.13;14.10;;;10.70;81.50;;;;;;5113028;28;20211;-66
2021/10/30 01:43:07;;;;;;;24.07;15.00;;;10.70;81.80;;;;;;5112487;28;20210;-66
2021/10/30 01:45:34;;;;;;;22.57;13.50;;;10.70;81.90;;;;;;5105123;27;20534;-66
2021/10/30 01:48:01;;;;;;;27.33;15.83;;;10.60;81.80;;;;;;5119914;27;20206;-67
2021/10/30 01:50:29;;;;;;;22.90;14.50;;;10.60;81.80;;;;;;5118762;27;20258;-67
2021/10/30 01:52:59;;;;;;;26.83;15.30;;;10.60;82.10;;;;;;5099883;28;20295;-66
2021/10/30 01:55:28;;;;;;;28.27;16.57;;;10.60;82.20;;;;;;5113734;28;20652;-66
2021/10/30 01:57:55;;;;;;;26.23;15.80;;;10.60;82.70;;;;;;5109277;28;20607;-67
2021/10/30 02:00:21;;;;;;;29.87;14.97;;;10.60;82.90;;;;;;5112740;28;20231;-67
2021/10/30 02:02:48;;;;;;;28.47;15.80;;;10.50;83.20;;;;;;5115102;27;20207;-67
2021/10/30 02:05:15;;;;;;;26.17;17.00;;;10.50;83.60;;;;;;5127278;27;20719;-67
2021/10/30 02:07:42;;;;;;;28.47;15.87;;;10.40;83.80;;;;;;5114433;28;20230;-67
2021/10/30 02:10:10;;;;;;;25.17;16.10;;;10.40;84.30;;;;;;5118677;27;20223;-67
2021/10/30 02:12:39;;;;;;;25.67;15.53;;;10.40;84.70;;;;;;5105324;28;20210;-66
2021/10/30 02:15:07;;;;;;;27.43;16.20;;;10.30;85.00;;;;;;5110933;27;20203;-67
2021/10/30 02:17:34;;;;;;;29.10;17.63;;;10.30;85.10;;;;;;5123604;27;20212;-67
2021/10/30 02:20:02;;;;;;;27.63;15.83;;;10.20;85.10;;;;;;5113626;28;20204;-67
2021/10/30 02:22:28;;;;;;;25.90;15.73;;;10.20;85.70;;;;;;5114122;28;20267;-66
2021/10/30 02:24:55;;;;;;;23.67;15.93;;;10.20;86.10;;;;;;5113049;28;20212;-66
2021/10/30 02:27:22;;;;;;;24.70;15.83;;;10.10;86.30;;;;;;5114067;28;20212;-66
2021/10/30 02:29:51;;;;;;;27.57;16.73;;;10.10;86.70;;;;;;5113029;28;20575;-66
2021/10/30 02:32:17;;;;;;;24.47;16.10;;;10.10;87.00;;;;;;5115022;27;20552;-67
2021/10/30 02:34:44;;;;;;;29.07;16.13;;;10.00;87.20;;;;;;5113424;28;20207;-66
2021/10/30 02:37:11;;;;;;;23.23;16.13;;;10.00;87.40;;;;;;5117562;27;20203;-66
2021/10/30 02:39:38;;;;;;;32.27;20.83;;;10.00;88.30;;;;;;5123179;27;20250;-66
2021/10/30 02:42:06;;;;;;;33.23;20.63;;;9.90;88.90;;;;;;5115730;27;20238;-67
2021/10/30 02:44:34;;;;;;;32.47;19.43;;;9.90;89.20;;;;;;5118839;27;20612;-66
2021/10/30 02:47:02;;;;;;;32.57;18.33;;;9.90;89.50;;;;;;5111189;28;20210;-67
2021/10/30 02:49:29;;;;;;;26.73;16.83;;;9.80;89.70;;;;;;5127789;27;20255;-66
2021/10/30 02:51:56;;;;;;;29.93;17.73;;;9.80;89.90;;;;;;5113873;28;20207;-66
2021/10/30 02:54:23;;;;;;;30.07;17.57;;;9.80;90.10;;;;;;5113509;28;20208;-66
2021/10/30 02:56:50;;;;;;;24.23;16.50;;;9.80;90.30;;;;;;5107174;28;20574;-67
2021/10/30 02:59:17;;;;;;;28.23;16.93;;;9.70;90.70;;;;;;5115268;27;20234;-66
2021/10/30 03:01:44;;;;;;;27.40;16.27;;;9.70;90.50;;;;;;5107591;28;20207;-67
2021/10/30 03:04:12;;;;;;;29.03;17.70;;;9.70;90.70;;;;;;5114003;28;20208;-67
2021/10/30 03:06:39;;;;;;;31.87;18.17;;;9.60;90.80;;;;;;5112826;28;20204;-66
2021/10/30 03:09:06;;;;;;;26.73;17.30;;;9.60;91.00;;;;;;5120942;27;20231;-66
2021/10/30 03:11:33;;;;;;;27.27;17.37;;;9.60;91.30;;;;;;5112744;28;20575;-66
2021/10/30 03:14:00;;;;;;;30.30;17.23;;;9.50;91.50;;;;;;5112012;28;20298;-66
2021/10/30 03:16:27;;;;;;;28.90;17.23;;;9.40;91.60;;;;;;5112355;28;20267;-66
2021/10/30 03:18:54;;;;;;;31.60;18.20;;;9.40;91.80;;;;;;5112395;28;20203;-66
2021/10/30 03:21:23;;;;;;;32.27;18.07;;;9.40;92.00;;;;;;5112394;27;20200;-66
2021/10/30 03:23:50;;;;;;;27.93;18.10;;;9.30;92.20;;;;;;5097547;28;20200;-65
2021/10/30 03:26:16;;;;;;;31.53;18.37;;;9.30;92.20;;;;;;5104670;28;20674;-66
2021/10/30 03:28:43;;;;;;;33.77;18.70;;;9.20;92.20;;;;;;5106530;27;20307;-66
2021/10/30 03:31:10;;;;;;;33.60;18.67;;;9.20;92.50;;;;;;5109969;28;20203;-66
2021/10/30 03:33:38;;;;;;;28.83;17.40;;;9.20;92.60;;;;;;5112511;28;20215;-65
2021/10/30 03:36:05;;;;;;;28.67;18.57;;;9.20;92.80;;;;;;5112320;28;20204;-67
2021/10/30 03:38:34;;;;;;;26.90;17.67;;;9.10;92.90;;;;;;5125539;27;20239;-67
2021/10/30 03:41:01;;;;;;;27.10;17.10;;;9.10;93.00;;;;;;5111747;28;20203;-67
2021/10/30 03:43:28;;;;;;;32.67;17.53;;;9.10;93.10;;;;;;5111139;28;20215;-66
2021/10/30 03:45:55;;;;;;;31.83;18.23;;;9.10;93.20;;;;;;5111804;28;20265;-66
2021/10/30 03:48:22;;;;;;;30.73;18.10;;;9.10;93.30;;;;;;5120199;27;20457;-65
2021/10/30 03:50:51;;;;;;;27.63;17.33;;;9.10;93.40;;;;;;5117801;27;20692;-67
2021/10/30 03:53:18;;;;;;;28.37;17.00;;;9.10;93.50;;;;;;5118829;27;20199;-66
2021/10/30 03:55:46;;;;;;;26.13;16.67;;;9.10;93.50;;;;;;5114687;27;20264;-66
2021/10/30 03:58:14;;;;;;;29.67;17.33;;;9.10;93.50;;;;;;5103238;28;20295;-67
2021/10/30 04:00:41;;;;;;;29.40;17.70;;;9.10;93.40;;;;;;5106239;28;20207;-67
2021/10/30 04:03:08;;;;;;;23.93;15.47;;;9.10;93.40;;;;;;5112150;27;20203;-66
2021/10/30 04:05:35;;;;;;;25.47;16.20;;;9.10;93.40;;;;;;5122076;27;20686;-66
2021/10/30 04:08:03;;;;;;;28.03;15.97;;;9.10;93.30;;;;;;5111456;28;20212;-65
2021/10/30 04:10:30;;;;;;;30.07;16.60;;;9.20;93.40;;;;;;5111109;28;20228;-66
2021/10/30 04:12:58;;;;;;;26.97;15.93;;;9.10;93.40;;;;;;5111470;28;20206;-66
2021/10/30 04:15:25;;;;;;;25.83;17.13;;;9.10;93.40;;;;;;5111474;28;20635;-67
2021/10/30 04:17:52;;;;;;;25.10;16.73;;;9.10;93.50;;;;;;5115702;28;20571;-67
2021/10/30 04:20:19;;;;;;;29.50;17.53;;;9.00;93.50;;;;;;5110671;28;20265;-68
2021/10/30 04:22:45;;;;;;;28.10;17.30;;;9.00;93.50;;;;;;5112063;28;20361;-66
2021/10/30 04:25:12;;;;;;;25.10;16.67;;;9.00;93.60;;;;;;5115565;28;20207;-67
2021/10/30 04:27:39;;;;;;;26.30;16.07;;;9.00;93.80;;;;;;5106305;28;20252;-66
2021/10/30 04:30:08;;;;;;;30.37;17.53;;;8.90;93.80;;;;;;5110932;28;20683;-67
2021/10/30 04:32:35;;;;;;;30.00;17.57;;;8.90;94.00;;;;;;5111345;28;20294;-67
2021/10/30 04:35:06;;;;;;;25.70;16.47;;;8.90;94.20;;;;;;5106403;28;20212;-68
2021/10/30 04:37:33;;;;;;;30.87;18.13;;;8.90;94.30;;;;;;5118660;28;20206;-66
2021/10/30 04:40:00;;;;;;;28.57;17.90;;;8.80;94.50;;;;;;5118204;28;20961;-66
2021/10/30 04:42:27;;;;;;;24.33;16.93;;;8.80;94.70;;;;;;5105948;28;20200;-67
2021/10/30 04:44:54;;;;;;;32.10;18.20;;;8.70;94.90;;;;;;5104314;28;20207;-66
2021/10/30 04:47:22;;;;;;;32.50;18.33;;;8.60;95.20;;;;;;5110868;28;20208;-67
2021/10/30 04:49:50;;;;;;;28.93;18.83;;;8.60;95.60;;;;;;5096188;28;20226;-66
2021/10/30 04:52:17;;;;;;;31.23;18.93;;;8.50;95.90;;;;;;5109403;28;20208;-68
2021/10/30 04:54:44;;;;;;;29.37;18.53;;;8.50;96.20;;;;;;5112286;28;20226;-67
2021/10/30 04:57:11;;;;;;;29.63;18.80;;;8.50;96.60;;;;;;5112072;28;20227;-66
2021/10/30 04:59:38;;;;;;;30.73;19.30;;;8.50;96.80;;;;;;5101266;28;20236;-67
2021/10/30 05:02:05;;;;;;;28.33;18.23;;;8.40;97.10;;;;;;5113525;28;20200;-69
2021/10/30 05:04:34;;;;;;;28.30;18.27;;;8.40;97.30;;;;;;5101426;28;20212;-67
2021/10/30 05:07:00;;;;;;;27.00;18.07;;;8.40;97.60;;;;;;5115175;28;20208;-67
2021/10/30 05:09:27;;;;;;;30.20;17.33;;;8.40;97.90;;;;;;5115425;28;20314;-67
2021/10/30 05:11:54;;;;;;;32.53;18.87;;;8.30;98.50;;;;;;5108898;28;20223;-69
2021/10/30 05:14:21;;;;;;;29.00;18.27;;;8.30;98.50;;;;;;5101403;28;20212;-68
2021/10/30 05:16:48;;;;;;;29.30;19.23;;;8.30;98.90;;;;;;5114116;27;20203;-67
2021/10/30 05:19:15;;;;;;;29.30;18.30;;;8.20;99.10;;;;;;5116376;27;20213;-68
2021/10/30 05:21:44;;;;;;;30.63;18.33;;;8.20;99.30;;;;;;5128435;27;20334;-67
2021/10/30 05:24:12;;;;;;;30.50;18.73;;;8.20;99.50;;;;;;5122465;27;20195;-68
2021/10/30 05:26:38;;;;;;;30.57;18.47;;;8.20;99.80;;;;;;5108243;27;20645;-67
2021/10/30 05:29:05;;;;;;;27.03;17.93;;;8.20;99.90;;;;;;5128811;27;20207;-68
2021/10/30 05:31:32;;;;;;;31.70;18.63;;;8.20;99.90;;;;;;5128288;27;20307;-67
2021/10/30 05:33:59;;;;;;;29.80;17.03;;;8.20;99.90;;;;;;5131344;27;20206;-66
2021/10/30 05:36:28;;;;;;;26.87;17.53;;;8.20;99.90;;;;;;5117211;27;20207;-67
2021/10/30 05:38:56;;;;;;;27.13;17.13;;;8.20;99.90;;;;;;5119177;27;20211;-67
2021/10/30 05:41:24;;;;;;;28.87;17.50;;;8.20;99.90;;;;;;5133743;27;20312;-67
2021/10/30 05:43:50;;;;;;;33.37;18.17;;;8.20;99.90;;;;;;5115113;27;20215;-68
2021/10/30 05:46:18;;;;;;;26.80;17.17;;;8.30;99.90;;;;;;5112206;28;20649;-67
2021/10/30 05:48:45;;;;;;;25.73;17.50;;;8.30;99.90;;;;;;5100121;28;20234;-68
2021/10/30 05:51:12;;;;;;;30.77;18.50;;;8.30;99.90;;;;;;5112416;28;20707;-68
2021/10/30 05:53:39;;;;;;;26.70;17.83;;;8.30;99.90;;;;;;5114688;28;20290;-68
2021/10/30 05:56:07;;;;;;;30.60;18.27;;;8.30;99.90;;;;;;5114384;28;20621;-71
2021/10/30 05:58:34;;;;;;;29.13;17.30;;;8.40;99.90;;;;;;5113925;28;20243;-70
2021/10/30 06:01:01;;;;;;;28.97;17.20;;;8.40;99.90;;;;;;5116331;27;20286;-71
2021/10/30 06:03:28;;;;;;;29.30;18.20;;;8.50;99.90;;;;;;5115825;27;20238;-70
2021/10/30 06:05:55;;;;;;;34.28;22.67;;;8.50;99.90;;;;;;5109966;27;20534;-71
2021/10/30 06:08:22;;;;;;;34.28;20.70;;;8.50;99.90;;;;;;5115978;27;20438;-71
2021/10/30 06:10:49;;;;;;;29.87;19.20;;;8.60;99.90;;;;;;5111316;27;20314;-69
2021/10/30 06:13:17;;;;;;;30.40;18.80;;;8.60;99.90;;;;;;5113453;27;20210;-70
2021/10/30 06:15:44;;;;;;;29.67;18.63;;;8.60;99.90;;;;;;5120669;27;20208;-71
2021/10/30 06:18:11;;;;;;;29.13;17.80;;;8.70;99.90;;;;;;5113888;28;20220;-70
2021/10/30 06:20:38;;;;;;;33.23;17.83;;;8.80;99.90;;;;;;5120325;27;20204;-70
2021/10/30 06:23:05;;;;;;;34.33;18.83;;;8.90;99.90;;;;;;5113706;27;20611;-69
2021/10/30 06:25:32;;;;;;;30.30;17.20;;;8.90;99.90;;;;;;5113724;28;20279;-69
2021/10/30 06:27:59;;;;;;;35.07;18.80;;;9.00;99.90;;;;;;5113490;28;20210;-71
2021/10/30 06:30:27;;;;;;;28.60;17.43;;;9.00;99.90;;;;;;5119907;27;20234;-71
2021/10/30 06:32:54;;;;;;;26.43;18.00;;;9.00;99.90;;;;;;5111791;28;20745;-67
2021/10/30 06:35:21;;;;;;;28.37;18.47;;;9.10;99.90;;;;;;5120030;27;20652;-70
2021/10/30 06:37:48;;;;;;;28.33;17.73;;;9.20;99.90;;;;;;5120022;27;20215;-71
2021/10/30 06:40:15;;;;;;;33.10;18.90;;;9.20;99.90;;;;;;5112702;28;20285;-68
2021/10/30 06:42:43;;;;;;;32.73;19.00;;;9.30;99.90;;;;;;5114174;27;20835;-73
2021/10/30 06:45:11;;;;;;;30.73;17.47;;;9.50;99.90;;;;;;5108163;27;20220;-70
2021/10/30 06:47:40;;;;;;;34.33;18.23;;;9.60;99.60;;;;;;5118278;27;20208;-71
2021/10/30 06:50:08;;;;;;;28.73;18.10;;;9.80;99.30;;;;;;5108156;28;20224;-69
2021/10/30 06:52:39;;;;;;;27.77;17.43;;;9.90;98.90;;;;;;5098371;27;21054;-69
2021/10/30 06:55:08;;;;;;;26.23;16.70;;;10.00;97.90;;;;;;5106840;27;20196;-68
2021/10/30 06:57:35;;;;;;;26.07;15.93;;;10.20;97.70;;;;;;5106719;28;20315;-68
2021/10/30 07:00:04;;;;;;;24.53;16.37;;;10.30;97.40;;;;;;5105661;28;20283;-69
2021/10/30 07:02:31;;;;;;;25.87;16.63;;;10.50;97.10;;;;;;5118928;27;20203;-68
2021/10/30 07:05:00;;;;;;;28.70;16.53;;;10.70;96.70;;;;;;5122745;27;20307;-69
2021/10/30 07:07:27;;;;;;;24.67;16.07;;;10.80;96.30;;;;;;5114027;27;20211;-69
2021/10/30 07:09:59;;;;;;;28.50;16.10;;;11.10;95.90;;;;;;5113013;27;20306;-68
2021/10/30 07:12:26;;;;;;;27.60;16.07;;;11.40;95.60;;;;;;5119948;27;20567;-68
2021/10/30 07:14:53;;;;;;;23.73;15.70;;;11.70;94.30;;;;;;5103771;27;20209;-67
2021/10/30 07:17:20;;;;;;;26.63;17.17;;;11.80;93.60;;;;;;5107109;27;20609;-68
2021/10/30 07:19:47;;;;;;;29.33;16.70;;;11.80;92.90;;;;;;5107057;28;20653;-67
2021/10/30 07:22:16;;;;;;;24.60;16.07;;;11.90;93.20;;;;;;5117204;27;20203;-69
2021/10/30 07:24:43;;;;;;;26.83;16.53;;;12.00;92.60;;;;;;5113362;27;20200;-68
2021/10/30 07:27:10;;;;;;;25.63;16.17;;;12.10;92.30;;;;;;5123695;27;20257;-69
2021/10/30 07:29:38;;;;;;;25.90;16.37;;;12.20;92.40;;;;;;5109317;28;20723;-67
2021/10/30 07:32:05;;;;;;;23.00;15.43;;;12.40;91.70;;;;;;5110286;27;20193;-68
2021/10/30 07:34:32;;;;;;;24.53;15.50;;;12.40;91.40;;;;;;5121218;27;20592;-67
2021/10/30 07:36:59;;;;;;;23.53;16.10;;;12.50;91.00;;;;;;5123764;27;20231;-69
2021/10/30 07:39:27;;;;;;;26.67;16.07;;;12.70;90.50;;;;;;5123415;27;20199;-69
2021/10/30 07:41:54;;;;;;;25.03;15.63;;;12.80;90.10;;;;;;5115498;27;20192;-68
2021/10/30 07:44:21;;;;;;;32.13;16.87;;;12.90;89.60;;;;;;5114405;27;20237;-68
2021/10/30 07:46:48;;;;;;;26.40;15.93;;;12.90;88.60;;;;;;5100654;28;20250;-67
2021/10/30 07:49:15;;;;;;;27.53;15.63;;;13.00;88.00;;;;;;5111059;27;20200;-66
2021/10/30 07:51:41;;;;;;;24.73;15.13;;;13.20;88.40;;;;;;5112115;27;20510;-67
2021/10/30 07:54:08;;;;;;;22.73;15.03;;;13.40;86.90;;;;;;5114686;27;20207;-66
2021/10/30 07:56:37;;;;;;;26.20;16.40;;;13.60;86.10;;;;;;5117119;27;20237;-66
2021/10/30 07:59:03;;;;;;;25.50;16.37;;;13.70;85.00;;;;;;5107599;28;20235;-69
2021/10/30 08:01:30;;;;;;;22.77;15.13;;;13.90;83.90;;;;;;5120726;27;20214;-67
2021/10/30 08:03:57;;;;;;;26.87;16.77;;;14.00;83.10;;;;;;5111232;28;20299;-68
2021/10/30 08:06:24;;;;;;;26.67;16.80;;;14.20;82.40;;;;;;5111664;28;20196;-67
2021/10/30 08:08:51;;;;;;;27.00;17.23;;;14.30;82.10;;;;;;5119420;27;20217;-67
2021/10/30 08:11:18;;;;;;;23.77;16.00;;;14.40;80.80;;;;;;5110736;28;20230;-68
2021/10/30 08:13:46;;;;;;;25.73;15.67;;;14.50;79.50;;;;;;5111934;28;20207;-66
2021/10/30 08:16:13;;;;;;;29.53;15.53;;;14.60;78.80;;;;;;5106409;28;20291;-68
2021/10/30 08:18:40;;;;;;;23.87;15.97;;;14.60;77.80;;;;;;5106697;28;20586;-69
2021/10/30 08:21:06;;;;;;;26.90;16.07;;;14.70;77.40;;;;;;5119262;28;20556;-68
2021/10/30 08:23:33;;;;;;;25.27;15.33;;;14.90;77.10;;;;;;5110684;28;20267;-67
2021/10/30 08:26:00;;;;;;;23.37;15.63;;;15.00;76.50;;;;;;5110464;28;20204;-69
2021/10/30 08:28:27;;;;;;;23.33;14.93;;;15.30;75.80;;;;;;5103380;28;20204;-68
2021/10/30 08:30:55;;;;;;;26.03;15.87;;;15.40;75.20;;;;;;5114284;28;20230;-68
2021/10/30 08:33:23;;;;;;;24.37;15.43;;;15.70;75.10;;;;;;5108988;28;20291;-70
2021/10/30 08:35:50;;;;;;;24.17;16.10;;;15.90;74.40;;;;;;5115501;28;20288;-70
2021/10/30 08:38:17;;;;;;;27.42;17.08;;;16.20;75.20;;;;;;5114608;28;20443;-70
2021/10/30 08:40:44;;;;;;;31.73;18.47;;;16.60;73.80;;;;;;5128155;27;20210;-71
2021/10/30 08:43:19;;;;;;;26.00;16.63;;;17.60;75.80;;;;;;5115137;28;20672;-70
2021/10/30 08:45:46;;;;;;;20.65;14.90;;;19.90;72.00;;;;;;5114989;28;20204;-70
2021/10/30 08:48:15;;;;;;;24.92;16.20;;;23.00;58.20;;;;;;5114427;27;20286;-70
2021/10/30 08:50:42;;;;;;;21.95;16.33;;;25.80;50.60;;;;;;5114745;28;20713;-70
2021/10/30 08:53:09;;;;;;;21.95;15.75;;;28.20;45.30;;;;;;5115183;28;20214;-70
2021/10/30 08:55:36;;;;;;;20.90;15.88;;;30.20;39.50;;;;;;5114864;28;20204;-70
2021/10/30 08:58:05;;;;;;;22.50;15.55;;;31.70;36.70;;;;;;5106687;28;20299;-69
2021/10/30 09:00:33;;;;;;;22.85;15.82;;;32.90;34.10;;;;;;5111287;28;20354;-71
2021/10/30 09:03:02;;;;;;;21.88;14.90;;;33.70;32.90;;;;;;5113264;28;20216;-68
2021/10/30 09:05:32;;;;;;;24.33;15.57;;;34.50;31.30;;;;;;5103363;28;20753;-69
2021/10/30 09:08:02;;;;;;;20.05;15.48;;;35.40;30.60;;;;;;5117185;27;20213;-71
2021/10/30 09:10:32;;;;;;;21.70;15.32;;;36.60;29.10;;;;;;5116745;27;20227;-71
2021/10/30 09:13:03;;;;;;;21.25;15.07;;;37.40;28.20;;;;;;5115323;27;20260;-73
2021/10/30 09:15:34;;;;;;;22.27;15.15;;;38.00;27.70;;;;;;5119081;27;20211;-71
2021/10/30 09:18:01;;;;;;;16.52;14.30;;;38.50;27.20;;;;;;5123794;27;20207;-70
2021/10/30 09:20:35;;;;;;;18.27;14.82;;;38.80;26.60;;;;;;5129722;27;20264;-71
2021/10/30 09:23:03;;;;;;;20.17;16.73;;;39.40;26.30;;;;;;5123678;27;20262;-69
2021/10/30 09:25:30;;;;;;;18.95;14.57;;;39.80;25.80;;;;;;5123614;27;20233;-70
2021/10/30 09:28:00;;;;;;;19.88;15.40;;;40.20;25.50;;;;;;5126849;27;20203;-71
2021/10/30 09:30:31;;;;;;;18.65;14.73;;;40.90;25.20;;;;;;5127059;27;20231;-69
2021/10/30 09:33:01;;;;;;;21.02;15.32;;;41.80;24.80;;;;;;5130649;27;20609;-70
2021/10/30 09:35:30;;;;;;;20.33;15.82;;;42.30;24.40;;;;;;5123357;27;20231;-70
2021/10/30 09:37:58;;;;;;;16.48;14.35;;;42.40;24.00;;;;;;5121873;27;20290;-70
2021/10/30 09:40:28;;;;;;;16.42;14.57;;;42.30;23.90;;;;;;5129976;27;20203;-69
2021/10/30 09:43:10;;;;;;;17.38;15.02;;;42.40;23.80;;;;;;5129389;27;20207;-69
2021/10/30 09:45:40;;;;;;;18.48;15.38;;;42.60;23.70;;;;;;5129845;27;20728;-70
2021/10/30 09:48:09;;;;;;;17.05;14.02;;;42.50;23.50;;;;;;5127448;27;20195;-70
2021/10/30 09:50:36;;;;;;;17.60;14.77;;;42.50;23.50;;;;;;5128918;27;20199;-71
2021/10/30 09:53:33;;;;;;;16.83;14.73;;;42.50;23.40;;;;;;5127567;27;20203;-70
2021/10/30 09:56:02;;;;;;;19.85;16.83;;;43.00;23.30;;;;;;5118301;27;20219;-70
2021/10/30 09:58:36;;;;;;;18.17;16.17;;;43.10;23.60;;;;;;5114881;27;20243;-70
2021/10/30 10:01:08;;;;;;;18.05;15.57;;;42.90;23.50;;;;;;5111908;27;20196;-70
2021/10/30 10:03:36;;;;;;;18.15;14.65;;;43.20;23.20;;;;;;5113773;27;20294;-68
2021/10/30 10:06:05;;;;;;;20.77;16.10;;;43.60;23.00;;;;;;5114425;27;20210;-70
2021/10/30 10:08:37;;;;;;;19.25;15.77;;;44.20;22.70;;;;;;5110561;27;20211;-69
2021/10/30 10:11:06;;;;;;;18.13;14.45;;;43.90;22.50;;;;;;5109369;27;20235;-69
2021/10/30 10:13:34;;;;;;;15.10;13.43;;;43.80;22.60;;;;;;5112556;28;20282;-70
2021/10/30 10:16:02;;;;;;;21.25;13.98;;;43.90;22.50;;;;;;5122489;27;20206;-68
2021/10/30 10:18:29;;;;;;;15.40;13.52;;;44.20;22.50;;;;;;5112277;27;20234;-71
2021/10/30 10:20:56;;;;;;;18.15;13.93;;;44.50;22.20;;;;;;5114830;27;20412;-72
2021/10/30 10:23:23;;;;;;;18.33;14.13;;;45.00;21.90;;;;;;5119858;27;20202;-73
2021/10/30 10:25:54;;;;;;;19.60;13.52;;;45.40;21.90;;;;;;5114359;27;20213;-72
2021/10/30 10:28:25;;;;;;;18.02;14.18;;;45.40;21.70;;;;;;5130848;27;20210;-71
2021/10/30 10:31:04;;;;;;;20.10;14.43;;;45.20;21.50;;;;;;5129709;27;20240;-72
2021/10/30 10:33:32;;;;;;;16.35;13.07;;;45.40;21.70;;;;;;5128422;27;20211;-73
2021/10/30 10:36:26;;;;;;;17.58;14.15;;;45.80;21.30;;;;;;5124284;27;20714;-71
2021/10/30 10:39:15;;;;;;;15.98;13.00;;;46.40;21.10;;;;;;5122317;27;20282;-71
2021/10/30 10:41:57;;;;;;;15.38;13.00;;;46.70;21.00;;;;;;5115771;27;20286;-72
2021/10/30 10:44:59;;;;;;;19.50;14.45;;;47.20;20.90;;;;;;5117289;27;20263;-72
2021/10/30 10:48:00;;;;;;;17.33;13.57;;;47.50;20.60;;;;;;5111032;28;20199;-71
2021/10/30 10:50:35;;;;;;;21.48;15.27;;;47.20;20.70;;;;;;5112132;27;20670;-72
2021/10/30 10:53:19;;;;;;;18.55;14.85;;;47.00;20.80;;;;;;5111626;28;20492;-70
2021/10/30 10:56:18;;;;;;;15.73;13.68;;;46.40;20.60;;;;;;5105333;28;20218;-70
2021/10/30 10:59:22;;;;;;;21.67;15.00;;;45.60;20.90;;;;;;5109873;28;20227;-70
2021/10/30 11:02:19;;;;;;;17.38;13.77;;;45.20;21.20;;;;;;5111873;28;20202;-70
2021/10/30 11:05:26;;;;;;;16.75;13.35;;;46.00;21.10;;;;;;5120593;27;20287;-72
2021/10/30 11:08:30;;;;;;;15.40;13.13;;;46.80;20.50;;;;;;5124585;27;20281;-70
2021/10/30 11:11:29;;;;;;;16.88;13.25;;;47.50;20.40;;;;;;5117638;27;20577;-72
2021/10/30 11:14:01;;;;;;;14.77;12.38;;;47.90;20.20;;;;;;5129436;27;20290;-70
2021/10/30 11:16:38;;;;;;;14.32;12.77;;;47.60;20.20;;;;;;5129662;27;20327;-71
2021/10/30 11:19:19;;;;;;;14.65;13.13;;;46.60;20.40;;;;;;5120270;27;20660;-70
2021/10/30 11:21:49;;;;;;;16.83;12.63;;;45.80;20.70;;;;;;5118815;27;20191;-70
2021/10/30 11:24:25;;;;;;;18.30;13.23;;;45.90;20.70;;;;;;5120269;27;20633;-70
2021/10/30 11:27:04;;;;;;;19.20;14.10;;;46.50;20.60;;;;;;5130759;27;20199;-70
2021/10/30 11:29:31;;;;;;;16.30;12.85;;;46.80;20.40;;;;;;5122965;27;20275;-73
2021/10/30 11:32:01;;;;;;;17.33;12.15;;;46.80;20.40;;;;;;5109173;28;20579;-71
2021/10/30 11:34:28;;;;;;;13.65;12.27;;;47.00;20.30;;;;;;5112792;27;20257;-71
2021/10/30 11:36:57;;;;;;;14.85;12.30;;;46.80;20.30;;;;;;5114480;27;20214;-69
2021/10/30 11:39:26;;;;;;;13.65;12.23;;;46.10;20.40;;;;;;5111203;28;20199;-72
2021/10/30 11:41:54;;;;;;;16.00;12.00;;;44.40;20.40;;;;;;5098614;28;20563;-70
2021/10/30 11:44:23;;;;;;;14.68;10.82;;;41.80;21.10;;;;;;5110958;28;20586;-71
2021/10/30 11:46:54;;;;;;;15.75;12.48;;;38.60;22.60;;;;;;5111600;28;20683;-72
2021/10/30 11:49:28;;;;;;;15.02;11.85;;;35.50;24.40;;;;;;5098253;27;20281;-70
2021/10/30 11:52:06;;;;;;;14.50;11.60;;;32.80;26.30;;;;;;5129139;27;20269;-70
2021/10/30 11:54:33;;;;;;;16.90;12.23;;;30.40;28.30;;;;;;5121353;27;20229;-72
2021/10/30 11:57:01;;;;;;;15.65;12.13;;;28.40;30.00;;;;;;5122054;27;20228;-71
2021/10/30 11:59:28;;;;;;;18.25;11.68;;;26.90;31.80;;;;;;5110759;28;20235;-72
2021/10/30 12:01:55;;;;;;;16.42;11.65;;;25.50;33.60;;;;;;5119196;27;20219;-70
2021/10/30 12:04:24;;;;;;;16.08;11.65;;;24.40;35.30;;;;;;5117676;27;20292;-70
2021/10/30 12:06:54;;;;;;;17.88;11.43;;;23.30;36.80;;;;;;5110005;28;20214;-70
2021/10/30 12:09:26;;;;;;;18.05;11.45;;;22.40;38.40;;;;;;5110128;28;20226;-70
2021/10/30 12:11:55;;;;;;;18.40;12.90;;;21.60;39.50;;;;;;5106467;28;20459;-70
2021/10/30 12:14:28;;;;;;;16.08;10.98;;;20.90;40.70;;;;;;5103231;28;20204;-69
2021/10/30 12:16:56;;;;;;;18.40;12.30;;;20.40;41.50;;;;;;5110528;28;20207;-71
2021/10/30 12:19:26;;;;;;;14.55;10.65;;;20.00;42.20;;;;;;5111145;28;20572;-70
2021/10/30 12:22:07;;;;;;;18.52;12.38;;;19.60;43.00;;;;;;5108263;28;20200;-71
2021/10/30 12:24:35;;;;;;;17.55;11.48;;;19.20;44.00;;;;;;5102046;28;20204;-71
2021/10/30 12:27:04;;;;;;;18.77;11.05;;;18.90;44.60;;;;;;5101709;28;20197;-71
2021/10/30 12:29:31;;;;;;;17.95;12.90;;;18.60;45.20;;;;;;5115865;28;20215;-72
2021/10/30 12:32:07;;;;;;;19.60;11.85;;;18.50;46.00;;;;;;5107407;28;20273;-72
2021/10/30 12:34:36;;;;;;;18.40;11.95;;;18.30;46.60;;;;;;5114985;28;20199;-71
2021/10/30 12:37:05;;;;;;;21.55;13.05;;;18.10;46.70;;;;;;5114062;28;20217;-70
2021/10/30 12:39:33;;;;;;;18.52;11.65;;;18.00;47.30;;;;;;5111053;28;20236;-71
2021/10/30 12:42:01;;;;;;;18.87;11.90;;;17.90;47.90;;;;;;5108122;28;20673;-72